createdAt,value
2023-01-22T00:02:12.112Z,2.27
2023-01-22T00:04:43.865Z,1.80
2023-01-22T00:07:15.641Z,4.23
2023-01-22T00:09:47.707Z,1.67
2023-01-22T00:12:19.448Z,1.47
2023-01-22T00:14:51.231Z,2.50
2023-01-22T00:17:23.193Z,2.17
2023-01-22T00:19:54.956Z,1.63
2023-01-22T00:22:26.669Z,2.50
2023-01-22T00:24:58.368Z,1.57
2023-01-22T00:27:30.063Z,2.97
2023-01-22T00:30:01.753Z,3.37
2023-01-22T00:32:33.456Z,1.70
2023-01-22T00:35:05.522Z,2.70
2023-01-22T00:37:37.256Z,2.13
2023-01-22T00:40:09.776Z,4.43
2023-01-22T00:42:41.880Z,6.23
2023-01-22T00:45:15.353Z,5.10
2023-01-22T00:47:47.159Z,3.53
2023-01-22T00:50:19.289Z,4.13
2023-01-22T00:52:51.520Z,5.47
2023-01-22T00:55:23.485Z,3.47
2023-01-22T00:57:55.277Z,2.30
2023-01-22T01:00:27.130Z,3.90
2023-01-22T01:03:17.405Z,15.10
2023-01-22T01:05:49.116Z,9.00
2023-01-22T01:08:24.171Z,11.63
2023-01-22T01:10:57.520Z,14.30
2023-01-22T01:13:31.694Z,10.40
2023-01-22T01:16:09.101Z,7.07
2023-01-22T01:18:41.396Z,5.27
2023-01-22T01:21:13.173Z,4.53
2023-01-22T01:23:46.663Z,2.53
2023-01-22T01:26:18.439Z,2.13
2023-01-22T01:28:52.510Z,3.27
2023-01-22T01:31:26.192Z,2.27
2023-01-22T01:33:58.631Z,3.57
2023-01-22T01:36:47.755Z,3.10
2023-01-22T01:39:20.822Z,2.80
2023-01-22T01:41:52.596Z,4.10
2023-01-22T01:44:24.702Z,8.53
2023-01-22T01:47:05.153Z,3.23
2023-01-22T01:49:43.624Z,2.33
2023-01-22T01:52:16.338Z,3.43
2023-01-22T01:54:52.821Z,2.40
2023-01-22T01:57:29.440Z,2.07
2023-01-22T02:00:05.692Z,3.90
2023-01-22T02:02:45.296Z,1.90
2023-01-22T02:05:20.534Z,2.07
2023-01-22T02:07:52.265Z,2.90
2023-01-22T02:10:24.018Z,2.13
2023-01-22T02:12:58.740Z,2.73
2023-01-22T02:15:31.259Z,2.43
2023-01-22T02:18:02.975Z,2.50
2023-01-22T02:20:37.259Z,9.53
2023-01-22T02:23:09.017Z,3.57
2023-01-22T02:25:40.805Z,3.90
2023-01-22T02:28:15.731Z,4.40
2023-01-22T02:30:47.879Z,2.40
2023-01-22T02:33:20.588Z,2.53
2023-01-22T02:35:52.308Z,2.87
2023-01-22T02:38:33.366Z,3.07
2023-01-22T02:41:05.303Z,2.83
2023-01-22T02:43:37.841Z,3.93
2023-01-22T02:46:09.722Z,3.63
2023-01-22T02:48:41.534Z,3.87
2023-01-22T02:51:13.539Z,2.47
2023-01-22T02:53:47.621Z,3.27
2023-01-22T02:56:20.043Z,1.57
2023-01-22T02:58:51.808Z,2.43
2023-01-22T03:01:24.853Z,3.30
2023-01-22T03:04:10.601Z,2.93
2023-01-22T03:06:44.745Z,2.53
2023-01-22T03:09:17.563Z,2.67
2023-01-22T03:11:49.694Z,2.40
2023-01-22T03:14:48.946Z,1.77
2023-01-22T03:17:39.883Z,2.10
2023-01-22T03:20:30.154Z,2.80
2023-01-22T03:23:01.866Z,2.67
2023-01-22T03:25:33.563Z,1.80
2023-01-22T03:28:18.769Z,5.07
2023-01-22T03:30:56.455Z,3.93
2023-01-22T03:33:28.795Z,2.33
2023-01-22T03:36:02.778Z,1.93
2023-01-22T03:38:35.954Z,2.47
2023-01-22T03:41:16.336Z,1.57
2023-01-22T03:43:49.329Z,1.40
2023-01-22T03:46:24.591Z,4.10
2023-01-22T03:49:00.387Z,3.40
2023-01-22T03:51:32.310Z,1.90
2023-01-22T03:54:04.560Z,2.13
2023-01-22T03:56:36.273Z,2.83
2023-01-22T03:59:13.727Z,2.23
2023-01-22T04:01:45.565Z,2.80
2023-01-22T04:04:17.959Z,2.47
2023-01-22T04:06:49.771Z,1.83
2023-01-22T04:09:21.593Z,2.40
2023-01-22T04:11:54.890Z,2.90
2023-01-22T04:14:26.668Z,6.77
2023-01-22T04:17:04.149Z,4.40
2023-01-22T04:20:05.727Z,2.50
2023-01-22T04:22:48.945Z,2.57
2023-01-22T04:25:20.746Z,2.93
2023-01-22T04:27:52.578Z,2.40
2023-01-22T04:30:24.716Z,2.33
2023-01-22T04:33:05.392Z,3.47
2023-01-22T04:35:54.297Z,3.53
2023-01-22T04:38:26.123Z,2.17
2023-01-22T04:40:57.889Z,2.43
2023-01-22T04:43:29.650Z,2.00
2023-01-22T04:46:01.360Z,2.17
2023-01-22T04:48:35.889Z,4.13
2023-01-22T04:51:07.779Z,3.73
2023-01-22T04:53:39.670Z,2.67
2023-01-22T04:56:12.548Z,2.67
2023-01-22T04:58:44.358Z,2.60
2023-01-22T05:01:16.234Z,5.33
2023-01-22T05:03:49.082Z,1.63
2023-01-22T05:06:20.867Z,2.00
2023-01-22T05:08:52.644Z,2.03
2023-01-22T05:11:24.395Z,1.77
2023-01-22T05:14:00.755Z,2.83
2023-01-22T05:16:32.783Z,1.67
2023-01-22T05:19:04.787Z,1.63
2023-01-22T05:21:36.936Z,2.33
2023-01-22T05:24:10.466Z,3.07
2023-01-22T05:26:43.830Z,2.60
2023-01-22T05:29:25.533Z,4.13
2023-01-22T05:32:23.260Z,1.30
2023-01-22T05:34:59.270Z,3.00
2023-01-22T05:37:32.518Z,4.30
2023-01-22T05:40:05.789Z,3.77
2023-01-22T05:42:39.855Z,2.13
2023-01-22T05:45:13.513Z,2.10
2023-01-22T05:47:58.243Z,2.23
2023-01-22T05:50:41.645Z,1.63
2023-01-22T05:53:15.858Z,2.27
2023-01-22T05:55:48.256Z,1.63
2023-01-22T05:58:20.062Z,2.07
2023-01-22T06:00:53.584Z,2.13
2023-01-22T06:03:29.042Z,2.23
2023-01-22T06:06:02.756Z,2.03
2023-01-22T06:08:34.631Z,1.90
2023-01-22T06:11:12.318Z,3.67
2023-01-22T06:13:49.240Z,1.27
2023-01-22T06:16:26.058Z,1.90
2023-01-22T06:19:13.541Z,1.80
2023-01-22T06:21:54.389Z,2.40
2023-01-22T06:24:33.254Z,2.90
2023-01-22T06:27:06.583Z,2.53
2023-01-22T06:29:52.887Z,1.77
2023-01-22T06:32:25.394Z,4.20
2023-01-22T06:34:57.392Z,3.87
2023-01-22T06:37:29.096Z,4.37
2023-01-22T06:40:01.962Z,2.43
2023-01-22T06:42:44.790Z,3.10
2023-01-22T06:45:16.666Z,3.87
2023-01-22T06:47:53.773Z,2.93
2023-01-22T06:50:25.558Z,1.87
2023-01-22T06:52:57.263Z,2.30
2023-01-22T06:55:29.034Z,3.07
2023-01-22T06:58:01.213Z,3.83
2023-01-22T07:00:32.928Z,4.83
2023-01-22T07:03:08.392Z,2.07
2023-01-22T07:05:40.168Z,2.77
2023-01-22T07:08:15.703Z,1.87
2023-01-22T07:10:47.408Z,2.87
2023-01-22T07:13:19.159Z,3.13
2023-01-22T07:15:51.188Z,3.23
2023-01-22T07:18:24.347Z,2.70
2023-01-22T07:20:59.908Z,3.40
2023-01-22T07:23:31.904Z,2.93
2023-01-22T07:26:03.698Z,4.23
2023-01-22T07:28:35.401Z,2.27
2023-01-22T07:31:10.978Z,3.10
2023-01-22T07:33:42.937Z,4.60
2023-01-22T07:36:14.643Z,3.27
2023-01-22T07:38:46.355Z,2.33
2023-01-22T07:41:25.909Z,3.27
2023-01-22T07:43:59.607Z,3.47
2023-01-22T07:46:31.350Z,3.20
2023-01-22T07:49:03.094Z,2.60
2023-01-22T07:51:34.934Z,2.67
2023-01-22T07:54:06.993Z,6.80
2023-01-22T07:56:38.713Z,3.60
2023-01-22T07:59:10.430Z,2.60
2023-01-22T08:01:42.178Z,2.80
2023-01-22T08:04:14.019Z,3.20
2023-01-22T08:06:45.779Z,3.70
2023-01-22T08:09:24.588Z,3.87
2023-01-22T08:11:56.293Z,5.30
2023-01-22T08:14:27.997Z,3.50
2023-01-22T08:16:59.731Z,3.00
2023-01-22T08:19:31.490Z,4.20
2023-01-22T08:22:04.522Z,3.13
2023-01-22T08:24:36.468Z,5.83
2023-01-22T08:27:08.373Z,4.30
2023-01-22T08:29:40.108Z,4.60
2023-01-22T08:32:11.916Z,4.43
2023-01-22T08:34:43.663Z,2.90
2023-01-22T08:37:15.379Z,5.63
2023-01-22T08:39:47.068Z,3.20
2023-01-22T08:42:19.003Z,3.37
2023-01-22T08:44:50.697Z,7.70
2023-01-22T08:47:22.427Z,2.57
2023-01-22T08:49:54.107Z,2.90
2023-01-22T08:52:25.848Z,4.23
2023-01-22T08:54:57.542Z,3.07
2023-01-22T08:57:29.305Z,7.30
2023-01-22T09:00:01.719Z,4.33
2023-01-22T09:02:33.595Z,4.93
2023-01-22T09:05:05.767Z,7.90
2023-01-22T09:07:37.590Z,3.67
2023-01-22T09:10:12.242Z,3.97
2023-01-22T09:12:43.951Z,4.53
2023-01-22T09:15:15.765Z,4.07
2023-01-22T09:17:47.471Z,4.73
2023-01-22T09:20:19.465Z,7.73
2023-01-22T09:22:51.713Z,3.70
2023-01-22T09:25:23.654Z,3.73
2023-01-22T09:28:04.990Z,4.07
2023-01-22T09:30:39.302Z,4.33
2023-01-22T09:33:11.135Z,5.00
2023-01-22T09:35:42.839Z,5.97
2023-01-22T09:38:14.669Z,5.13
2023-01-22T09:40:54.830Z,4.67
2023-01-22T09:43:47.865Z,4.57
2023-01-22T09:46:25.093Z,4.03
2023-01-22T09:49:03.141Z,6.70
2023-01-22T09:51:35.692Z,3.63
2023-01-22T09:54:08.719Z,4.30
2023-01-22T09:56:46.590Z,3.23
2023-01-22T09:59:21.815Z,3.13
2023-01-22T10:01:57.042Z,4.20
2023-01-22T10:04:39.414Z,4.90
2023-01-22T10:07:24.011Z,3.33
2023-01-22T10:10:00.261Z,4.17
2023-01-22T10:12:32.496Z,5.10
2023-01-22T10:15:04.399Z,6.30
2023-01-22T10:17:38.538Z,3.30
2023-01-22T10:20:12.782Z,4.50
2023-01-22T10:22:44.871Z,4.53
2023-01-22T10:25:16.810Z,4.47
2023-01-22T10:27:59.264Z,8.17
2023-01-22T10:30:31.234Z,7.27
2023-01-22T10:33:06.944Z,3.63
2023-01-22T10:35:50.234Z,6.17
2023-01-22T10:38:27.260Z,5.33
2023-01-22T10:41:02.176Z,6.77
2023-01-22T10:43:36.354Z,8.13
2023-01-22T10:46:20.980Z,6.30
2023-01-22T10:49:00.161Z,3.83
2023-01-22T10:51:40.962Z,3.90
2023-01-22T10:54:21.894Z,4.03
2023-01-22T10:57:04.930Z,5.10
2023-01-22T10:59:36.986Z,4.93
2023-01-22T11:02:20.372Z,5.17
2023-01-22T11:04:52.918Z,4.30
2023-01-22T11:07:32.441Z,4.33
2023-01-22T11:10:20.509Z,5.43
2023-01-22T11:13:00.527Z,4.40
2023-01-22T11:15:44.976Z,5.17
2023-01-22T11:18:37.056Z,5.30
2023-01-22T11:21:32.197Z,5.53
2023-01-22T11:24:11.728Z,3.93
2023-01-22T11:26:49.876Z,4.90
2023-01-22T11:29:30.262Z,3.10
2023-01-22T11:32:39.757Z,3.47
2023-01-22T11:35:49.981Z,7.83
2023-01-22T11:38:24.454Z,5.80
2023-01-22T11:41:05.007Z,6.67
2023-01-22T11:43:58.970Z,3.83
2023-01-22T11:46:52.754Z,3.30
2023-01-22T11:49:48.952Z,3.93
2023-01-22T11:52:42.623Z,6.10
2023-01-22T11:55:29.369Z,6.37
2023-01-22T11:58:12.059Z,5.63
2023-01-22T12:00:46.630Z,4.80
2023-01-22T12:03:32.857Z,4.00
2023-01-22T12:06:17.963Z,3.77
2023-01-22T12:09:09.299Z,3.73
2023-01-22T12:12:03.439Z,4.37
2023-01-22T12:14:47.540Z,3.53
2023-01-22T12:17:43.587Z,6.50
2023-01-22T12:20:30.135Z,6.40
2023-01-22T12:23:13.920Z,5.73
2023-01-22T12:25:59.192Z,6.03
2023-01-22T12:28:40.996Z,5.33
2023-01-22T12:31:29.477Z,7.30
2023-01-22T12:34:05.230Z,5.17
2023-01-22T12:36:37.643Z,8.40
2023-01-22T12:39:33.896Z,6.10
2023-01-22T12:42:14.419Z,7.47
2023-01-22T12:45:02.655Z,6.43
2023-01-22T12:47:46.455Z,6.30
2023-01-22T12:50:21.695Z,9.37
2023-01-22T12:53:19.593Z,4.70
2023-01-22T12:56:28.215Z,5.67
2023-01-22T12:59:00.111Z,4.70
2023-01-22T13:01:34.962Z,7.57
2023-01-22T13:04:12.195Z,5.60
2023-01-22T13:06:43.999Z,5.43
2023-01-22T13:09:25.741Z,4.53
2023-01-22T13:12:11.248Z,4.67
2023-01-22T13:14:43.633Z,8.53
2023-01-22T13:17:30.424Z,4.00
2023-01-22T13:20:03.482Z,4.60
2023-01-22T13:22:35.373Z,12.97
2023-01-22T13:25:21.801Z,5.03
2023-01-22T13:27:53.941Z,7.27
2023-01-22T13:30:28.435Z,8.03
2023-01-22T13:33:18.281Z,4.57
2023-01-22T13:35:49.966Z,9.27
2023-01-22T13:38:35.016Z,4.70
2023-01-22T13:41:17.285Z,5.27
2023-01-22T13:43:49.296Z,5.33
2023-01-22T13:46:21.083Z,15.43
2023-01-22T13:49:12.049Z,7.83
2023-01-22T13:51:44.406Z,6.83
2023-01-22T13:54:58.108Z,6.33
2023-01-22T13:57:29.993Z,6.40
2023-01-22T14:00:04.538Z,5.53
2023-01-22T14:02:38.613Z,4.20
2023-01-22T14:05:29.305Z,5.87
2023-01-22T14:08:06.508Z,10.77
2023-01-22T14:10:41.292Z,5.03
2023-01-22T14:13:15.470Z,4.93
2023-01-22T14:15:56.253Z,5.73
2023-01-22T14:18:31.245Z,5.73
2023-01-22T14:21:03.451Z,10.33
2023-01-22T14:23:35.726Z,6.70
2023-01-22T14:26:08.477Z,6.40
2023-01-22T14:28:40.189Z,8.23
2023-01-22T14:31:11.918Z,6.50
2023-01-22T14:33:43.731Z,5.83
2023-01-22T14:36:15.486Z,8.70
2023-01-22T14:38:49.453Z,7.33
2023-01-22T14:41:21.283Z,7.33
2023-01-22T14:43:53.034Z,6.03
2023-01-22T14:46:24.743Z,6.33
2023-01-22T14:48:57.612Z,8.17
2023-01-22T14:51:29.408Z,4.67
2023-01-22T14:54:01.157Z,6.90
2023-01-22T14:56:32.901Z,7.83
2023-01-22T14:59:04.739Z,7.23
2023-01-22T15:01:36.523Z,5.63
2023-01-22T15:04:08.944Z,8.60
2023-01-22T15:06:40.658Z,4.33
2023-01-22T15:09:12.380Z,8.23
2023-01-22T15:11:44.210Z,5.53
2023-01-22T15:14:15.893Z,8.63
2023-01-22T15:16:47.673Z,6.50
2023-01-22T15:19:19.420Z,7.93
2023-01-22T15:21:51.216Z,5.63
2023-01-22T15:24:24.757Z,7.00
2023-01-22T15:26:57.536Z,9.83
2023-01-22T15:29:29.240Z,5.70
2023-01-22T15:32:01.047Z,6.87
2023-01-22T15:34:32.737Z,6.03
2023-01-22T15:37:05.013Z,8.83
2023-01-22T15:39:36.860Z,6.70
2023-01-22T15:42:08.959Z,5.93
2023-01-22T15:44:40.971Z,6.40
2023-01-22T15:47:14.364Z,9.43
2023-01-22T15:49:46.142Z,4.67
2023-01-22T15:52:18.173Z,11.57
2023-01-22T15:54:53.444Z,5.97
2023-01-22T15:57:25.196Z,8.13
2023-01-22T15:59:56.943Z,15.50
2023-01-22T16:02:28.804Z,10.50
2023-01-22T16:05:00.668Z,8.50
2023-01-22T16:07:32.420Z,8.80
2023-01-22T16:10:04.685Z,6.40
2023-01-22T16:12:36.515Z,5.87
2023-01-22T16:15:09.846Z,15.27
2023-01-22T16:17:41.543Z,6.70
2023-01-22T16:20:13.298Z,8.23
2023-01-22T16:22:45.935Z,19.33
2023-01-22T16:25:17.668Z,4.77
2023-01-22T16:27:49.434Z,11.40
2023-01-22T16:30:21.338Z,7.33
2023-01-22T16:32:54.144Z,10.80
2023-01-22T16:35:26.089Z,7.23
2023-01-22T16:37:57.799Z,18.57
2023-01-22T16:40:31.230Z,4.93
2023-01-22T16:43:02.992Z,10.27
2023-01-22T16:45:35.372Z,10.63
2023-01-22T16:48:07.105Z,17.13
2023-01-22T16:50:38.928Z,11.27
2023-01-22T16:53:10.656Z,16.17
2023-01-22T16:55:42.355Z,16.10
2023-01-22T16:58:14.046Z,8.10
2023-01-22T17:00:47.377Z,10.00
2023-01-22T17:03:19.092Z,7.10
2023-01-22T17:05:50.902Z,8.43
2023-01-22T17:08:22.660Z,8.90
2023-01-22T17:10:54.351Z,4.83
2023-01-22T17:13:26.120Z,13.30
2023-01-22T17:15:57.867Z,7.17
2023-01-22T17:18:29.744Z,7.90
2023-01-22T17:21:06.792Z,11.53
2023-01-22T17:23:38.932Z,5.33
2023-01-22T17:26:12.888Z,5.10
2023-01-22T17:28:45.915Z,11.80
2023-01-22T17:31:21.965Z,6.97
2023-01-22T17:33:58.914Z,8.47
2023-01-22T17:36:31.507Z,7.27
2023-01-22T17:39:04.454Z,7.47
2023-01-22T17:41:36.178Z,9.03
2023-01-22T17:44:08.060Z,7.13
2023-01-22T17:46:40.315Z,6.00
2023-01-22T17:49:12.069Z,5.10
2023-01-22T17:51:43.864Z,5.77
2023-01-22T17:54:15.624Z,7.93
2023-01-22T17:56:49.033Z,6.60
2023-01-22T17:59:22.171Z,8.80
2023-01-22T18:01:54.010Z,9.47
2023-01-22T18:04:26.089Z,6.10
2023-01-22T18:06:57.920Z,5.97
2023-01-22T18:09:30.517Z,5.53
2023-01-22T18:12:02.929Z,13.13
2023-01-22T18:14:34.931Z,7.73
2023-01-22T18:17:06.640Z,5.07
2023-01-22T18:19:38.315Z,8.20
2023-01-22T18:22:10.103Z,7.67
2023-01-22T18:24:44.269Z,4.90
2023-01-22T18:27:16.530Z,5.50
2023-01-22T18:29:48.245Z,9.53
2023-01-22T18:32:21.666Z,6.97
2023-01-22T18:34:53.458Z,8.13
2023-01-22T18:37:25.299Z,8.17
2023-01-22T18:39:58.257Z,8.90
2023-01-22T18:42:30.711Z,7.73
2023-01-22T18:45:02.544Z,7.40
2023-01-22T18:47:36.843Z,15.43
2023-01-22T18:50:11.828Z,7.97
2023-01-22T18:52:44.602Z,9.00
2023-01-22T18:55:17.091Z,7.30
2023-01-22T18:57:54.413Z,11.30
2023-01-22T19:00:26.412Z,10.53
2023-01-22T19:02:59.181Z,17.07
2023-01-22T19:05:30.963Z,11.40
2023-01-22T19:08:02.756Z,8.90
2023-01-22T19:10:34.462Z,14.07
2023-01-22T19:13:06.313Z,12.03
2023-01-22T19:15:38.477Z,6.93
2023-01-22T19:18:10.689Z,21.70
2023-01-22T19:20:43.673Z,10.43
2023-01-22T19:23:15.557Z,7.47
2023-01-22T19:25:49.041Z,9.20
2023-01-22T19:28:20.809Z,7.43
2023-01-22T19:30:52.841Z,9.10
2023-01-22T19:33:27.737Z,6.87
2023-01-22T19:35:59.759Z,11.73
2023-01-22T19:38:31.806Z,12.07
2023-01-22T19:41:04.082Z,9.17
2023-01-22T19:43:36.239Z,17.77
2023-01-22T19:46:10.377Z,16.80
2023-01-22T19:48:42.309Z,16.30
2023-01-22T19:51:15.836Z,12.30
2023-01-22T19:53:48.685Z,10.63
2023-01-22T19:56:22.526Z,10.77
2023-01-22T19:58:59.030Z,11.83
2023-01-22T20:01:30.762Z,8.03
2023-01-22T20:04:03.899Z,10.40
2023-01-22T20:06:35.810Z,12.27
2023-01-22T20:09:07.653Z,8.37
2023-01-22T20:11:40.527Z,9.10
2023-01-22T20:14:12.254Z,10.07
2023-01-22T20:16:45.474Z,8.13
2023-01-22T20:19:17.720Z,10.47
2023-01-22T20:21:49.535Z,8.73
2023-01-22T20:24:21.305Z,15.17
2023-01-22T20:26:58.036Z,9.90
2023-01-22T20:29:29.761Z,8.43
2023-01-22T20:32:01.640Z,9.27
2023-01-22T20:34:33.779Z,8.87
2023-01-22T20:37:05.539Z,8.50
2023-01-22T20:39:37.243Z,9.20
2023-01-22T20:42:09.305Z,10.77
2023-01-22T20:44:41.522Z,7.30
2023-01-22T20:47:13.310Z,12.30
2023-01-22T20:49:45.157Z,11.77
2023-01-22T20:52:17.462Z,7.93
2023-01-22T20:55:00.959Z,11.87
2023-01-22T20:57:32.975Z,11.80
2023-01-22T21:00:05.274Z,9.50
2023-01-22T21:02:36.987Z,9.93
2023-01-22T21:05:09.085Z,11.67
2023-01-22T21:07:40.801Z,7.57
2023-01-22T21:10:14.077Z,10.63
2023-01-22T21:12:46.930Z,15.17
2023-01-22T21:15:18.737Z,12.30
2023-01-22T21:17:50.531Z,9.20
2023-01-22T21:20:22.267Z,11.10
2023-01-22T21:22:54.150Z,13.57
2023-01-22T21:25:25.864Z,10.83
2023-01-22T21:27:57.725Z,9.00
2023-01-22T21:30:30.511Z,11.50
2023-01-22T21:33:02.245Z,13.13
2023-01-22T21:35:33.994Z,11.53
2023-01-22T21:38:05.895Z,12.57
2023-01-22T21:40:37.664Z,11.80
2023-01-22T21:43:32.839Z,10.70
2023-01-22T21:46:24.921Z,6.23
2023-01-22T21:49:01.101Z,10.37
2023-01-22T21:51:32.787Z,14.13
2023-01-22T21:54:04.639Z,9.90
2023-01-22T21:56:36.330Z,16.53
2023-01-22T21:59:08.841Z,12.43
2023-01-22T22:01:41.596Z,12.20
2023-01-22T22:04:14.980Z,10.63
2023-01-22T22:06:46.924Z,10.73
2023-01-22T22:09:24.964Z,10.83
2023-01-22T22:11:58.677Z,11.00
2023-01-22T22:14:30.554Z,13.10
2023-01-22T22:17:02.322Z,6.80
2023-01-22T22:19:34.091Z,9.60
2023-01-22T22:22:05.820Z,12.90
2023-01-22T22:24:37.626Z,12.07
2023-01-22T22:27:09.313Z,8.90
2023-01-22T22:29:40.993Z,9.40
2023-01-22T22:32:12.782Z,10.90
2023-01-22T22:34:44.479Z,14.53
2023-01-22T22:37:17.285Z,8.80
2023-01-22T22:39:49.037Z,10.07
2023-01-22T22:42:20.796Z,9.47
2023-01-22T22:44:52.563Z,15.37
2023-01-22T22:47:24.287Z,11.63
2023-01-22T22:49:56.066Z,11.40
2023-01-22T22:52:27.797Z,8.83
2023-01-22T22:54:59.835Z,6.90
2023-01-22T22:57:31.571Z,8.80
2023-01-22T23:00:09.257Z,11.67
2023-01-22T23:02:42.524Z,7.90
2023-01-22T23:05:14.336Z,8.97
2023-01-22T23:07:46.042Z,15.20
2023-01-22T23:10:30.200Z,14.53
2023-01-22T23:13:02.951Z,9.97
2023-01-22T23:15:34.978Z,12.33
2023-01-22T23:18:06.641Z,8.57
2023-01-22T23:20:38.338Z,13.03
2023-01-22T23:23:10.098Z,14.23
2023-01-22T23:25:43.942Z,12.50
2023-01-22T23:28:15.766Z,12.27
2023-01-22T23:30:49.532Z,8.63
2023-01-22T23:33:21.318Z,12.00
2023-01-22T23:35:58.786Z,11.53
2023-01-22T23:38:30.911Z,16.17
2023-01-22T23:41:05.325Z,9.30
2023-01-22T23:43:37.080Z,13.57
2023-01-22T23:46:14.661Z,10.27
2023-01-22T23:48:46.777Z,7.30
2023-01-22T23:51:19.555Z,9.87
2023-01-22T23:53:52.547Z,7.40
2023-01-22T23:56:26.820Z,14.83
2023-01-22T23:58:59.150Z,10.87
